sensor_id;sensor_type;location;lat;lon;timestamp;pressure;altitude;pressure_sealevel;temperature;humidity
6413;BME280;3239;48.714;9.472;2022-11-20T00:01:17;98176.63;;;5.86;100.00
6413;BME280;3239;48.714;9.472;2022-11-20T00:03:44;98170.94;;;5.84;100.00
6413;BME280;3239;48.714;9.472;2022-11-20T00:06:14;98166.69;;;5.77;100.00
6413;BME280;3239;48.714;9.472;2022-11-20T00:08:40;98175.09;;;5.74;100.00
6413;BME280;3239;48.714;9.472;2022-11-20T00:11:09;98174.84;;;5.72;100.00
6413;BME280;3239;48.714;9.472;2022-11-20T00:13:36;98171.38;;;5.66;100.00
6413;BME280;3239;48.714;9.472;2022-11-20T00:16:04;98182.97;;;5.66;100.00
6413;BME280;3239;48.714;9.472;2022-11-20T00:18:32;98183.97;;;5.63;100.00
6413;BME280;3239;48.714;9.472;2022-11-20T00:21:06;98180.50;;;5.57;100.00
6413;BME280;3239;48.714;9.472;2022-11-20T00:23:32;98188.84;;;5.54;100.00
6413;BME280;3239;48.714;9.472;2022-11-20T00:26:19;98189.34;;;5.47;100.00
6413;BME280;3239;48.714;9.472;2022-11-20T00:28:50;98190.34;;;5.44;100.00
6413;BME280;3239;48.714;9.472;2022-11-20T00:31:17;98187.09;;;5.40;100.00
6413;BME280;3239;48.714;9.472;2022-11-20T00:33:43;98181.91;;;5.36;100.00
6413;BME280;3239;48.714;9.472;2022-11-20T00:36:14;98188.06;;;5.31;100.00
6413;BME280;3239;48.714;9.472;2022-11-20T00:38:40;98185.81;;;5.30;100.00
6413;BME280;3239;48.714;9.472;2022-11-20T00:41:11;98194.94;;;5.27;100.00
6413;BME280;3239;48.714;9.472;2022-11-20T00:43:38;98187.28;;;5.25;100.00
6413;BME280;3239;48.714;9.472;2022-11-20T00:46:07;98187.50;;;5.22;100.00
6413;BME280;3239;48.714;9.472;2022-11-20T00:48:33;98195.66;;;5.22;100.00
6413;BME280;3239;48.714;9.472;2022-11-20T00:51:00;98191.50;;;5.26;100.00
6413;BME280;3239;48.714;9.472;2022-11-20T00:53:26;98207.50;;;5.24;100.00
6413;BME280;3239;48.714;9.472;2022-11-20T00:55:57;98207.50;;;5.24;100.00
6413;BME280;3239;48.714;9.472;2022-11-20T00:58:24;98201.34;;;5.24;100.00
6413;BME280;3239;48.714;9.472;2022-11-20T01:00:51;98213.69;;;5.25;100.00
6413;BME280;3239;48.714;9.472;2022-11-20T01:03:18;98216.94;;;5.29;100.00
6413;BME280;3239;48.714;9.472;2022-11-20T01:05:44;98222.38;;;5.34;100.00
6413;BME280;3239;48.714;9.472;2022-11-20T01:08:10;98221.13;;;5.30;100.00
6413;BME280;3239;48.714;9.472;2022-11-20T01:10:36;98221.38;;;5.32;100.00
6413;BME280;3239;48.714;9.472;2022-11-20T01:13:01;98224.84;;;5.32;100.00
6413;BME280;3239;48.714;9.472;2022-11-20T01:15:46;98232.00;;;5.35;100.00
6413;BME280;3239;48.714;9.472;2022-11-20T01:18:11;98233.53;;;5.36;100.00
6413;BME280;3239;48.714;9.472;2022-11-20T01:20:37;98233.00;;;5.38;100.00
6413;BME280;3239;48.714;9.472;2022-11-20T01:23:03;98234.25;;;5.37;100.00
6413;BME280;3239;48.714;9.472;2022-11-20T01:25:29;98238.94;;;5.36;100.00
6413;BME280;3239;48.714;9.472;2022-11-20T01:27:55;98236.97;;;5.37;100.00
6413;BME280;3239;48.714;9.472;2022-11-20T01:30:21;98234.00;;;5.35;100.00
6413;BME280;3239;48.714;9.472;2022-11-20T01:32:47;98237.44;;;5.35;100.00
6413;BME280;3239;48.714;9.472;2022-11-20T01:35:12;98235.97;;;5.34;100.00
6413;BME280;3239;48.714;9.472;2022-11-20T01:37:38;98235.22;;;5.34;100.00
6413;BME280;3239;48.714;9.472;2022-11-20T01:40:05;98234.47;;;5.33;100.00
6413;BME280;3239;48.714;9.472;2022-11-20T01:42:31;98233.22;;;5.29;100.00
6413;BME280;3239;48.714;9.472;2022-11-20T01:48:20;98232.25;;;5.32;100.00
6413;BME280;3239;48.714;9.472;2022-11-20T01:50:48;98237.91;;;5.28;100.00
6413;BME280;3239;48.714;9.472;2022-11-20T01:53:18;98241.38;;;5.29;100.00
6413;BME280;3239;48.714;9.472;2022-11-20T01:55:49;98244.56;;;5.27;100.00
6413;BME280;3239;48.714;9.472;2022-11-20T01:58:21;98240.63;;;5.28;100.00
6413;BME280;3239;48.714;9.472;2022-11-20T02:00:48;98231.47;;;5.26;100.00
6413;BME280;3239;48.714;9.472;2022-11-20T02:03:17;98233.72;;;5.27;100.00
6413;BME280;3239;48.714;9.472;2022-11-20T02:05:49;98231.00;;;5.27;100.00
6413;BME280;3239;48.714;9.472;2022-11-20T02:08:18;98230.22;;;5.21;100.00
6413;BME280;3239;48.714;9.472;2022-11-20T02:10:44;98223.56;;;5.22;100.00
6413;BME280;3239;48.714;9.472;2022-11-20T02:13:10;98219.59;;;5.23;100.00
6413;BME280;3239;48.714;9.472;2022-11-20T02:15:55;98220.56;;;5.15;100.00
6413;BME280;3239;48.714;9.472;2022-11-20T02:18:21;98220.53;;;5.09;100.00
6413;BME280;3239;48.714;9.472;2022-11-20T02:20:58;98218.31;;;5.08;100.00
6413;BME280;3239;48.714;9.472;2022-11-20T02:24:11;98217.75;;;4.98;100.00
6413;BME280;3239;48.714;9.472;2022-11-20T02:26:51;98214.25;;;4.92;100.00
6413;BME280;3239;48.714;9.472;2022-11-20T02:29:39;98213.75;;;4.88;100.00
6413;BME280;3239;48.714;9.472;2022-11-20T02:32:19;98223.63;;;4.91;100.00
6413;BME280;3239;48.714;9.472;2022-11-20T02:34:44;98210.75;;;4.86;100.00
6413;BME280;3239;48.714;9.472;2022-11-20T02:37:10;98211.25;;;4.85;100.00
6413;BME280;3239;48.714;9.472;2022-11-20T02:39:36;98217.44;;;4.85;100.00
6413;BME280;3239;48.714;9.472;2022-11-20T02:42:02;98217.91;;;4.84;100.00
6413;BME280;3239;48.714;9.472;2022-11-20T02:44:28;98205.09;;;4.84;100.00
6413;BME280;3239;48.714;9.472;2022-11-20T02:46:56;98209.28;;;4.85;100.00
6413;BME280;3239;48.714;9.472;2022-11-20T02:49:22;98206.78;;;4.82;100.00
6413;BME280;3239;48.714;9.472;2022-11-20T02:51:48;98211.94;;;4.80;100.00
6413;BME280;3239;48.714;9.472;2022-11-20T02:54:14;98215.38;;;4.75;100.00
6413;BME280;3239;48.714;9.472;2022-11-20T02:56:39;98211.16;;;4.74;100.00
6413;BME280;3239;48.714;9.472;2022-11-20T02:59:05;98215.88;;;4.73;100.00
6413;BME280;3239;48.714;9.472;2022-11-20T03:01:31;98218.81;;;4.70;100.00
6413;BME280;3239;48.714;9.472;2022-11-20T03:03:57;98216.88;;;4.76;100.00
6413;BME280;3239;48.714;9.472;2022-11-20T03:06:22;98222.06;;;4.79;100.00
6413;BME280;3239;48.714;9.472;2022-11-20T03:08:48;98214.88;;;4.76;100.00
6413;BME280;3239;48.714;9.472;2022-11-20T03:11:14;98220.09;;;4.80;100.00
6413;BME280;3239;48.714;9.472;2022-11-20T03:13:40;98217.34;;;4.74;100.00
6413;BME280;3239;48.714;9.472;2022-11-20T03:16:24;98219.53;;;4.70;100.00
6413;BME280;3239;48.714;9.472;2022-11-20T03:18:52;98213.88;;;4.68;100.00
6413;BME280;3239;48.714;9.472;2022-11-20T03:21:18;98216.28;;;4.66;100.00
6413;BME280;3239;48.714;9.472;2022-11-20T03:23:44;98232.88;;;4.74;100.00
6413;BME280;3239;48.714;9.472;2022-11-20T03:28:39;98230.47;;;4.81;100.00
6413;BME280;3239;48.714;9.472;2022-11-20T03:31:10;98231.94;;;4.82;100.00
6413;BME280;3239;48.714;9.472;2022-11-20T03:33:36;98232.25;;;4.90;100.00
6413;BME280;3239;48.714;9.472;2022-11-20T03:36:09;98235.97;;;4.92;100.00
6413;BME280;3239;48.714;9.472;2022-11-20T03:38:37;98242.63;;;4.91;100.00
6413;BME280;3239;48.714;9.472;2022-11-20T03:41:09;98241.91;;;4.96;100.00
6413;BME280;3239;48.714;9.472;2022-11-20T03:43:35;98245.88;;;5.01;100.00
6413;BME280;3239;48.714;9.472;2022-11-20T03:46:01;98246.66;;;5.01;100.00
6413;BME280;3239;48.714;9.472;2022-11-20T03:48:27;98247.91;;;5.06;100.00
6413;BME280;3239;48.714;9.472;2022-11-20T03:51:07;98247.41;;;5.07;100.00
6413;BME280;3239;48.714;9.472;2022-11-20T03:53:33;98244.69;;;5.02;100.00
6413;BME280;3239;48.714;9.472;2022-11-20T03:55:59;98242.94;;;4.99;100.00
6413;BME280;3239;48.714;9.472;2022-11-20T03:58:24;98242.44;;;5.00;100.00
6413;BME280;3239;48.714;9.472;2022-11-20T04:00:50;98236.31;;;5.05;100.00
6413;BME280;3239;48.714;9.472;2022-11-20T04:03:16;98232.59;;;5.03;100.00
6413;BME280;3239;48.714;9.472;2022-11-20T04:05:41;98229.41;;;5.04;100.00
6413;BME280;3239;48.714;9.472;2022-11-20T04:08:07;98230.34;;;5.01;100.00
6413;BME280;3239;48.714;9.472;2022-11-20T04:10:33;98231.31;;;4.98;100.00
6413;BME280;3239;48.714;9.472;2022-11-20T04:12:59;98226.69;;;5.04;100.00
6413;BME280;3239;48.714;9.472;2022-11-20T04:15:24;98228.13;;;5.00;100.00
6413;BME280;3239;48.714;9.472;2022-11-20T04:17:50;98221.44;;;4.95;100.00
6413;BME280;3239;48.714;9.472;2022-11-20T04:20:16;98221.44;;;4.95;100.00
6413;BME280;3239;48.714;9.472;2022-11-20T04:22:42;98215.25;;;4.95;100.00
6413;BME280;3239;48.714;9.472;2022-11-20T04:25:08;98203.66;;;4.94;100.00
6413;BME280;3239;48.714;9.472;2022-11-20T04:27:34;98209.56;;;4.93;100.00
6413;BME280;3239;48.714;9.472;2022-11-20T04:29:59;98209.81;;;4.89;100.00
6413;BME280;3239;48.714;9.472;2022-11-20T04:32:25;98197.47;;;4.94;100.00
6413;BME280;3239;48.714;9.472;2022-11-20T04:34:51;98194.00;;;4.93;100.00
6413;BME280;3239;48.714;9.472;2022-11-20T04:37:17;98192.56;;;4.98;100.00
6413;BME280;3239;48.714;9.472;2022-11-20T04:39:42;98182.69;;;4.95;100.00
6413;BME280;3239;48.714;9.472;2022-11-20T04:42:09;98181.72;;;4.98;100.00
6413;BME280;3239;48.714;9.472;2022-11-20T04:44:54;98169.38;;;4.97;100.00
6413;BME280;3239;48.714;9.472;2022-11-20T04:47:20;98168.88;;;4.98;100.00
6413;BME280;3239;48.714;9.472;2022-11-20T04:49:46;98155.09;;;5.02;100.00
6413;BME280;3239;48.714;9.472;2022-11-20T04:52:12;98149.16;;;5.03;100.00
6413;BME280;3239;48.714;9.472;2022-11-20T04:54:37;98144.22;;;5.02;100.00
6413;BME280;3239;48.714;9.472;2022-11-20T04:57:03;98139.53;;;5.02;100.00
6413;BME280;3239;48.714;9.472;2022-11-20T04:59:29;98136.31;;;5.04;100.00
6413;BME280;3239;48.714;9.472;2022-11-20T05:01:55;98129.41;;;5.03;100.00
6413;BME280;3239;48.714;9.472;2022-11-20T05:04:21;98129.91;;;5.01;100.00
6413;BME280;3239;48.714;9.472;2022-11-20T05:06:46;98126.44;;;5.01;100.00
6413;BME280;3239;48.714;9.472;2022-11-20T05:09:12;98117.56;;;5.00;100.00
6413;BME280;3239;48.714;9.472;2022-11-20T05:11:38;98106.94;;;5.02;100.00
6413;BME280;3239;48.714;9.472;2022-11-20T05:14:04;98110.66;;;5.05;100.00
6413;BME280;3239;48.714;9.472;2022-11-20T05:16:30;98108.69;;;5.05;100.00
6413;BME280;3239;48.714;9.472;2022-11-20T05:18:56;98092.41;;;5.05;100.00
6413;BME280;3239;48.714;9.472;2022-11-20T05:21:22;98095.88;;;5.11;100.00
6413;BME280;3239;48.714;9.472;2022-11-20T05:23:48;98088.69;;;5.08;100.00
6413;BME280;3239;48.714;9.472;2022-11-20T05:26:21;98087.25;;;5.13;100.00
6413;BME280;3239;48.714;9.472;2022-11-20T05:28:48;98085.53;;;5.15;100.00
6413;BME280;3239;48.714;9.472;2022-11-20T05:31:18;98088.50;;;5.17;100.00
6413;BME280;3239;48.714;9.472;2022-11-20T05:33:44;98089.97;;;5.18;100.00
6413;BME280;3239;48.714;9.472;2022-11-20T05:36:12;98068.75;;;5.22;100.00
6413;BME280;3239;48.714;9.472;2022-11-20T05:38:39;98072.94;;;5.23;100.00
6413;BME280;3239;48.714;9.472;2022-11-20T05:41:17;98072.72;;;5.27;100.00
6413;BME280;3239;48.714;9.472;2022-11-20T05:43:46;98068.53;;;5.31;100.00
6413;BME280;3239;48.714;9.472;2022-11-20T05:46:16;98067.78;;;5.31;100.00
6413;BME280;3239;48.714;9.472;2022-11-20T05:48:43;98056.91;;;5.31;100.00
6413;BME280;3239;48.714;9.472;2022-11-20T05:51:13;98055.19;;;5.33;100.00
6413;BME280;3239;48.714;9.472;2022-11-20T05:53:39;98046.28;;;5.33;100.00
6413;BME280;3239;48.714;9.472;2022-11-20T05:56:18;98036.94;;;5.34;100.00
6413;BME280;3239;48.714;9.472;2022-11-20T05:58:45;98040.41;;;5.40;100.00
6413;BME280;3239;48.714;9.472;2022-11-20T06:03:39;98034.22;;;5.39;100.00
6413;BME280;3239;48.714;9.472;2022-11-20T06:06:07;98037.44;;;5.43;100.00
6413;BME280;3239;48.714;9.472;2022-11-20T06:08:34;98027.31;;;5.44;100.00
6413;BME280;3239;48.714;9.472;2022-11-20T06:11:09;98025.81;;;5.43;100.00
6413;BME280;3239;48.714;9.472;2022-11-20T06:13:35;98012.25;;;5.48;100.00
6413;BME280;3239;48.714;9.472;2022-11-20T06:16:02;98015.22;;;5.50;100.00
6413;BME280;3239;48.714;9.472;2022-11-20T06:18:29;98009.53;;;5.48;100.00
6413;BME280;3239;48.714;9.472;2022-11-20T06:21:10;97994.47;;;5.53;100.00
6413;BME280;3239;48.714;9.472;2022-11-20T06:23:37;98004.59;;;5.52;100.00
6413;BME280;3239;48.714;9.472;2022-11-20T06:26:12;98006.31;;;5.55;100.00
6413;BME280;3239;48.714;9.472;2022-11-20T06:28:39;98007.78;;;5.56;100.00
6413;BME280;3239;48.714;9.472;2022-11-20T06:31:06;98001.88;;;5.58;100.00
6413;BME280;3239;48.714;9.472;2022-11-20T06:33:33;98002.38;;;5.62;100.00
6413;BME280;3239;48.714;9.472;2022-11-20T06:36:00;97990.78;;;5.56;100.00
6413;BME280;3239;48.714;9.472;2022-11-20T06:38:27;97989.75;;;5.59;100.00
6413;BME280;3239;48.714;9.472;2022-11-20T06:40:54;97984.34;;;5.64;100.00
6413;BME280;3239;48.714;9.472;2022-11-20T06:43:20;97978.66;;;5.62;100.00
6413;BME280;3239;48.714;9.472;2022-11-20T06:45:46;97979.88;;;5.67;100.00
6413;BME280;3239;48.714;9.472;2022-11-20T06:48:11;97977.94;;;5.67;100.00
6413;BME280;3239;48.714;9.472;2022-11-20T06:50:37;97984.09;;;5.62;100.00
6413;BME280;3239;48.714;9.472;2022-11-20T06:53:04;97976.94;;;5.59;100.00
6413;BME280;3239;48.714;9.472;2022-11-20T06:55:31;97975.44;;;5.64;100.00
6413;BME280;3239;48.714;9.472;2022-11-20T06:57:57;97986.31;;;5.64;100.00
6413;BME280;3239;48.714;9.472;2022-11-20T07:00:23;97974.94;;;5.65;100.00
6413;BME280;3239;48.714;9.472;2022-11-20T07:02:49;97988.53;;;5.71;100.00
6413;BME280;3239;48.714;9.472;2022-11-20T07:05:15;97984.59;;;5.72;100.00
6413;BME280;3239;48.714;9.472;2022-11-20T07:07:41;97990.50;;;5.70;100.00
6413;BME280;3239;48.714;9.472;2022-11-20T07:10:08;97992.25;;;5.68;100.00
6413;BME280;3239;48.714;9.472;2022-11-20T07:12:34;97984.59;;;5.72;100.00
6413;BME280;3239;48.714;9.472;2022-11-20T07:15:00;97978.16;;;5.69;100.00
6413;BME280;3239;48.714;9.472;2022-11-20T07:17:25;97960.63;;;5.76;100.00
6413;BME280;3239;48.714;9.472;2022-11-20T07:19:51;97967.53;;;5.77;100.00
6413;BME280;3239;48.714;9.472;2022-11-20T07:22:17;97944.56;;;5.89;100.00
6413;BME280;3239;48.714;9.472;2022-11-20T07:24:42;97949.00;;;5.86;100.00
6413;BME280;3239;48.714;9.472;2022-11-20T07:27:08;97946.28;;;5.75;100.00
6413;BME280;3239;48.714;9.472;2022-11-20T07:29:34;97953.69;;;5.75;100.00
6413;BME280;3239;48.714;9.472;2022-11-20T07:31:59;97953.19;;;5.76;100.00
6413;BME280;3239;48.714;9.472;2022-11-20T07:34:25;97949.03;;;5.81;100.00
6413;BME280;3239;48.714;9.472;2022-11-20T07:36:51;97951.47;;;5.79;100.00
6413;BME280;3239;48.714;9.472;2022-11-20T07:39:17;97950.25;;;5.80;100.00
6413;BME280;3239;48.714;9.472;2022-11-20T07:41:42;97947.78;;;5.82;100.00
6413;BME280;3239;48.714;9.472;2022-11-20T07:44:08;97953.47;;;5.89;100.00
6413;BME280;3239;48.714;9.472;2022-11-20T07:46:34;97951.97;;;5.94;100.00
6413;BME280;3239;48.714;9.472;2022-11-20T07:49:00;97949.47;;;5.96;100.00
6413;BME280;3239;48.714;9.472;2022-11-20T07:51:25;97953.16;;;6.04;100.00
6413;BME280;3239;48.714;9.472;2022-11-20T07:53:54;97948.94;;;6.08;100.00
6413;BME280;3239;48.714;9.472;2022-11-20T07:56:20;97943.28;;;6.06;100.00
6413;BME280;3239;48.714;9.472;2022-11-20T07:58:45;97946.97;;;6.03;100.00
6413;BME280;3239;48.714;9.472;2022-11-20T08:01:11;97940.56;;;6.06;100.00
6413;BME280;3239;48.714;9.472;2022-11-20T08:03:37;97933.88;;;6.07;100.00
6413;BME280;3239;48.714;9.472;2022-11-20T08:06:04;97939.56;;;6.04;100.00
6413;BME280;3239;48.714;9.472;2022-11-20T08:08:30;97919.75;;;6.14;100.00
6413;BME280;3239;48.714;9.472;2022-11-20T08:10:58;97924.44;;;6.25;100.00
6413;BME280;3239;48.714;9.472;2022-11-20T08:13:44;97931.34;;;6.26;100.00
6413;BME280;3239;48.714;9.472;2022-11-20T08:16:29;97930.63;;;6.25;100.00
6413;BME280;3239;48.714;9.472;2022-11-20T08:18:55;97923.94;;;6.21;100.00
6413;BME280;3239;48.714;9.472;2022-11-20T08:21:20;97925.63;;;6.29;100.00
6413;BME280;3239;48.714;9.472;2022-11-20T08:23:46;97925.63;;;6.35;100.00
6413;BME280;3239;48.714;9.472;2022-11-20T08:26:12;97929.63;;;6.23;100.00
6413;BME280;3239;48.714;9.472;2022-11-20T08:28:38;97930.13;;;6.21;100.00
6413;BME280;3239;48.714;9.472;2022-11-20T08:31:04;97920.22;;;6.24;100.00
6413;BME280;3239;48.714;9.472;2022-11-20T08:33:30;97926.91;;;6.23;100.00
6413;BME280;3239;48.714;9.472;2022-11-20T08:36:05;97941.25;;;6.23;100.00
6413;BME280;3239;48.714;9.472;2022-11-20T08:38:32;97943.72;;;6.21;100.00
6413;BME280;3239;48.714;9.472;2022-11-20T08:41:00;97935.34;;;6.14;100.00
6413;BME280;3239;48.714;9.472;2022-11-20T08:43:44;97945.69;;;6.21;100.00
6413;BME280;3239;48.714;9.472;2022-11-20T08:46:10;97945.97;;;6.23;100.00
6413;BME280;3239;48.714;9.472;2022-11-20T08:48:36;97949.13;;;6.27;100.00
6413;BME280;3239;48.714;9.472;2022-11-20T08:51:02;97959.00;;;6.35;100.00
6413;BME280;3239;48.714;9.472;2022-11-20T08:53:28;97948.63;;;6.28;100.00
6413;BME280;3239;48.714;9.472;2022-11-20T08:55:53;97950.41;;;6.20;100.00
6413;BME280;3239;48.714;9.472;2022-11-20T08:58:19;97954.53;;;6.38;100.00
6413;BME280;3239;48.714;9.472;2022-11-20T09:00:45;97939.47;;;6.37;100.00
6413;BME280;3239;48.714;9.472;2022-11-20T09:03:11;97944.69;;;6.29;100.00
6413;BME280;3239;48.714;9.472;2022-11-20T09:05:38;97949.13;;;6.32;100.00
6413;BME280;3239;48.714;9.472;2022-11-20T09:08:04;97942.16;;;6.42;100.00
6413;BME280;3239;48.714;9.472;2022-11-20T09:10:30;97944.88;;;6.42;100.00
6413;BME280;3239;48.714;9.472;2022-11-20T09:12:56;97943.16;;;6.39;100.00
6413;BME280;3239;48.714;9.472;2022-11-20T09:15:24;97956.75;;;6.45;100.00
6413;BME280;3239;48.714;9.472;2022-11-20T09:17:58;97945.34;;;6.46;100.00
6413;BME280;3239;48.714;9.472;2022-11-20T09:20:26;97945.34;;;6.52;100.00
6413;BME280;3239;48.714;9.472;2022-11-20T09:22:52;97947.78;;;6.61;100.00
6413;BME280;3239;48.714;9.472;2022-11-20T09:25:18;97948.22;;;6.65;100.00
6413;BME280;3239;48.714;9.472;2022-11-20T09:27:44;97959.84;;;6.71;100.00
6413;BME280;3239;48.714;9.472;2022-11-20T09:30:15;97962.09;;;6.67;100.00
6413;BME280;3239;48.714;9.472;2022-11-20T09:32:42;97965.25;;;6.76;100.00
6413;BME280;3239;48.714;9.472;2022-11-20T09:35:09;97960.28;;;6.80;100.00
6413;BME280;3239;48.714;9.472;2022-11-20T09:37:35;97957.59;;;6.75;100.00
6413;BME280;3239;48.714;9.472;2022-11-20T09:40:01;97961.06;;;6.75;100.00
6413;BME280;3239;48.714;9.472;2022-11-20T09:42:40;97963.78;;;6.70;100.00
6413;BME280;3239;48.714;9.472;2022-11-20T09:50:58;97985.88;;;6.61;100.00
6413;BME280;3239;48.714;9.472;2022-11-20T09:56:09;97990.56;;;6.66;100.00
6413;BME280;3239;48.714;9.472;2022-11-20T09:58:43;97984.09;;;6.69;100.00
6413;BME280;3239;48.714;9.472;2022-11-20T10:01:26;98000.69;;;6.71;100.00
6413;BME280;3239;48.714;9.472;2022-11-20T10:04:20;98002.88;;;6.72;100.00
6413;BME280;3239;48.714;9.472;2022-11-20T10:07:07;98006.38;;;6.73;100.00
6413;BME280;3239;48.714;9.472;2022-11-20T10:09:53;98008.34;;;6.72;100.00
6413;BME280;3239;48.714;9.472;2022-11-20T10:29:38;97995.91;;;6.82;100.00
6413;BME280;3239;48.714;9.472;2022-11-20T10:32:11;97993.44;;;6.84;100.00
6413;BME280;3239;48.714;9.472;2022-11-20T10:37:23;97996.66;;;6.83;100.00
6413;BME280;3239;48.714;9.472;2022-11-20T10:42:38;98000.84;;;6.89;100.00
6413;BME280;3239;48.714;9.472;2022-11-20T10:46:02;98002.06;;;6.88;100.00
6413;BME280;3239;48.714;9.472;2022-11-20T10:48:32;98001.34;;;6.88;100.00
6413;BME280;3239;48.714;9.472;2022-11-20T10:56:51;98016.75;;;6.74;100.00
6413;BME280;3239;48.714;9.472;2022-11-20T11:02:24;98042.53;;;6.62;100.00
6413;BME280;3239;48.714;9.472;2022-11-20T11:04:52;98055.19;;;6.54;100.00
6413;BME280;3239;48.714;9.472;2022-11-20T11:07:24;98074.97;;;6.55;100.00
6413;BME280;3239;48.714;9.472;2022-11-20T11:09:56;98099.94;;;6.59;100.00
6413;BME280;3239;48.714;9.472;2022-11-20T11:12:25;98108.63;;;6.57;100.00
6413;BME280;3239;48.714;9.472;2022-11-20T11:14:56;98115.81;;;6.49;100.00
6413;BME280;3239;48.714;9.472;2022-11-20T11:22:54;98138.81;;;6.43;100.00
6413;BME280;3239;48.714;9.472;2022-11-20T11:25:30;98148.72;;;6.46;100.00
6413;BME280;3239;48.714;9.472;2022-11-20T11:28:20;98159.13;;;6.47;100.00
6413;BME280;3239;48.714;9.472;2022-11-20T11:30:46;98166.28;;;6.56;100.00
6413;BME280;3239;48.714;9.472;2022-11-20T11:33:32;98168.72;;;6.54;100.00
6413;BME280;3239;48.714;9.472;2022-11-20T11:36:03;98172.69;;;6.53;100.00
6413;BME280;3239;48.714;9.472;2022-11-20T11:38:39;98184.31;;;6.59;100.00
6413;BME280;3239;48.714;9.472;2022-11-20T11:41:12;98186.81;;;6.62;100.00
6413;BME280;3239;48.714;9.472;2022-11-20T11:43:39;98192.72;;;6.66;100.00
6413;BME280;3239;48.714;9.472;2022-11-20T11:46:28;98189.50;;;6.79;100.00
6413;BME280;3239;48.714;9.472;2022-11-20T11:49:17;98195.19;;;6.92;100.00
6413;BME280;3239;48.714;9.472;2022-11-20T11:52:08;98208.03;;;7.08;100.00
6413;BME280;3239;48.714;9.472;2022-11-20T11:54:50;98201.03;;;7.23;100.00
6413;BME280;3239;48.714;9.472;2022-11-20T11:57:41;98207.88;;;7.46;100.00
6413;BME280;3239;48.714;9.472;2022-11-20T12:00:16;98200.63;;;7.65;100.00
6413;BME280;3239;48.714;9.472;2022-11-20T12:05:29;98190.34;;;7.82;100.00
6413;BME280;3239;48.714;9.472;2022-11-20T12:08:31;98177.69;;;7.85;100.00
6413;BME280;3239;48.714;9.472;2022-11-20T12:11:37;98160.53;;;7.95;100.00
6413;BME280;3239;48.714;9.472;2022-11-20T12:14:41;98142.59;;;8.05;100.00
6413;BME280;3239;48.714;9.472;2022-11-20T12:17:15;98136.81;;;8.14;100.00
6413;BME280;3239;48.714;9.472;2022-11-20T12:19:47;98153.31;;;10.53;100.00
6413;BME280;3239;48.714;9.472;2022-11-20T12:25:35;97823.97;;;17.57;100.00
6413;BME280;3239;48.714;9.472;2022-11-20T12:28:51;97710.09;;;12.72;100.00
6413;BME280;3239;48.714;9.472;2022-11-20T12:59:30;97861.66;;;8.61;100.00
6413;BME280;3239;48.714;9.472;2022-11-20T13:08:39;97894.09;;;8.03;100.00
6413;BME280;3239;48.714;9.472;2022-11-20T13:17:05;97877.00;;;8.03;100.00
6413;BME280;3239;48.714;9.472;2022-11-20T13:19:47;97884.94;;;8.01;100.00
6413;BME280;3239;48.714;9.472;2022-11-20T13:22:51;97854.97;;;8.19;100.00
6413;BME280;3239;48.714;9.472;2022-11-20T13:25:28;97823.72;;;8.20;100.00
6413;BME280;3239;48.714;9.472;2022-11-20T13:27:57;97810.53;;;8.24;100.00
6413;BME280;3239;48.714;9.472;2022-11-20T13:30:26;97800.72;;;8.34;100.00
6413;BME280;3239;48.714;9.472;2022-11-20T13:33:04;97798.25;;;8.12;100.00
6413;BME280;3239;48.714;9.472;2022-11-20T13:35:37;97780.63;;;8.13;100.00
6413;BME280;3239;48.714;9.472;2022-11-20T13:38:08;97765.00;;;8.14;100.00
6413;BME280;3239;48.714;9.472;2022-11-20T13:40:58;97769.59;;;8.24;100.00
6413;BME280;3239;48.714;9.472;2022-11-20T13:43:39;97750.22;;;10.82;100.00
6413;BME280;3239;48.714;9.472;2022-11-20T13:46:08;97699.00;;;11.26;100.00
6413;BME280;3239;48.714;9.472;2022-11-20T13:48:44;97679.56;;;9.60;100.00
6413;BME280;3239;48.714;9.472;2022-11-20T13:57:32;97690.84;;;9.17;100.00
6413;BME280;3239;48.714;9.472;2022-11-20T14:00:23;97668.84;;;10.49;100.00
6413;BME280;3239;48.714;9.472;2022-11-20T14:05:36;97662.78;;;9.76;100.00
6413;BME280;3239;48.714;9.472;2022-11-20T14:08:05;97660.34;;;8.87;100.00
6413;BME280;3239;48.714;9.472;2022-11-20T14:10:32;97666.84;;;8.71;100.00
6413;BME280;3239;48.714;9.472;2022-11-20T14:13:09;97668.81;;;8.58;100.00
6413;BME280;3239;48.714;9.472;2022-11-20T14:15:35;97678.59;;;8.53;100.00
6413;BME280;3239;48.714;9.472;2022-11-20T14:18:13;97687.44;;;8.72;100.00
6413;BME280;3239;48.714;9.472;2022-11-20T14:20:40;97671.19;;;12.15;100.00
6413;BME280;3239;48.714;9.472;2022-11-20T14:23:10;97629.47;;;13.61;100.00
6413;BME280;3239;48.714;9.472;2022-11-20T14:25:36;97616.06;;;15.90;100.00
6413;BME280;3239;48.714;9.472;2022-11-20T14:28:03;97617.19;;;13.00;100.00
6413;BME280;3239;48.714;9.472;2022-11-20T14:30:48;97630.97;;;11.60;100.00
6413;BME280;3239;48.714;9.472;2022-11-20T14:33:14;97637.25;;;10.28;100.00
6413;BME280;3239;48.714;9.472;2022-11-20T14:35:52;97643.53;;;9.22;100.00
6413;BME280;3239;48.714;9.472;2022-11-20T14:38:26;97645.75;;;8.85;100.00
6413;BME280;3239;48.714;9.472;2022-11-20T14:40:53;97664.25;;;8.34;100.00
6413;BME280;3239;48.714;9.472;2022-11-20T14:43:26;97670.47;;;8.16;100.00
6413;BME280;3239;48.714;9.472;2022-11-20T14:45:58;97670.13;;;7.88;100.00
6413;BME280;3239;48.714;9.472;2022-11-20T14:48:49;97682.09;;;7.85;100.00
6413;BME280;3239;48.714;9.472;2022-11-20T14:51:32;97683.56;;;7.68;100.00
6413;BME280;3239;48.714;9.472;2022-11-20T14:54:28;97697.34;;;7.57;100.00
6413;BME280;3239;48.714;9.472;2022-11-20T14:56:59;97700.88;;;7.52;100.00
6413;BME280;3239;48.714;9.472;2022-11-20T14:59:29;97717.28;;;7.46;100.00
6413;BME280;3239;48.714;9.472;2022-11-20T15:02:05;97703.72;;;7.41;100.00
6413;BME280;3239;48.714;9.472;2022-11-20T15:04:43;97710.06;;;7.49;100.00
6413;BME280;3239;48.714;9.472;2022-11-20T15:07:09;97710.19;;;7.38;100.00
6413;BME280;3239;48.714;9.472;2022-11-20T15:09:35;97698.72;;;7.45;100.00
6413;BME280;3239;48.714;9.472;2022-11-20T15:12:03;97696.84;;;7.34;100.00
6413;BME280;3239;48.714;9.472;2022-11-20T15:14:30;97688.16;;;7.36;100.00
6413;BME280;3239;48.714;9.472;2022-11-20T15:16:58;97696.94;;;7.29;100.00
6413;BME280;3239;48.714;9.472;2022-11-20T15:19:25;97701.31;;;7.13;100.00
6413;BME280;3239;48.714;9.472;2022-11-20T15:21:52;97699.88;;;7.07;100.00
6413;BME280;3239;48.714;9.472;2022-11-20T15:24:18;97717.31;;;6.98;100.00
6413;BME280;3239;48.714;9.472;2022-11-20T15:26:45;97716.13;;;6.94;100.00
6413;BME280;3239;48.714;9.472;2022-11-20T15:29:15;97710.88;;;6.96;100.00